Gulf - Port au Port: Past 24 Hour Conditions

 

Stephenville Airport

04:30 PM NST 20 November 2014
This table is a summary of hourly weather conditions for the past 24 hours.
Date / Time
(NST)
Wind(knots) Conditions Visibility(km) Pressure(kPa) Air tempC) Relative humidity(%) Dew pointC) Wind Chill
20 November 2014
16:30 SSE 11 Light Snow 19 101.5 0 67 -5 *
15:30 S 14 Light Snow 16 101.5 0 65 -6 *
14:30 SW 16 gust 21 Mostly Cloudy 24 101.5 0 63 -6 *
13:30 SW 16 gust 22 Mostly Cloudy 24 101.6 1 63 -6 *
12:30 WSW 21 gust 26 Mostly Cloudy 24 101.5 1 61 -6 *
11:30 WSW 22 Mostly Cloudy 24 101.6 0 58 -7 *
10:30 WSW 25 Mostly Cloudy 24 101.6 0 57 -7 *
9:30 WNW 11 gust 22 Mostly Cloudy 24 101.6 -1 58 -8 -7
8:30 WNW 14 Partly Cloudy 24 101.6 -2 57 -9 -8
7:30 WNW 16 gust 23 Partly Cloudy 24 101.6 -2 54 -10 -8
6:30 WSW 26 gust 33 Partly Cloudy 24 101.5 -1 57 -8 -9
5:30 W 17 gust 23 Mostly Cloudy 24 101.5 -1 64 -7 -8
4:30 W 17 gust 28 Mostly Cloudy 24 101.4 -1 64 -7 -8
3:30 W 26 gust 32 Mostly Cloudy 24 101.3 -1 61 -7 -9
2:30 W 26 gust 33 Mostly Cloudy 24 101.2 -1 76 -5 -10
1:30 W 21 gust 28 Mainly Clear 24 101.1 -1 60 -8 -9
0:30 W 21 gust 27 Mainly Clear 24 101.0 -1 61 -8 -8
19 November 2014
23:30 W 17 gust 24 Partly Cloudy 24 100.9 -1 65 -7 -8
22:30 WNW 17 gust 26 Light Snowshower 19 100.9 -1 66 -7 -8
21:30 W 27 gust 38 Light Snowshower 13 100.7 -1 70 -5 -9
20:30 WNW 16 gust 22 Light Snowshower 16 100.6 -1 72 -5 -8
19:30 WNW 20 gust 28 Light Snowshower 10 100.5 -1 84 -4 -9
18:30 WNW 19 gust 32 Light Snowshower 10 100.4 -2 88 -4 -9
17:30 W 29 gust 41 Drifting Snow 16 100.2 0 68 -6 -9
16:30 W 25 gust 41 Light Snowshower 13 100.0 -1 65 -7 -9
 
Map of Atlantic - Newfoundland marine weather areas Southwestern Grand Banks - 44138 Banquereau - 44139 Tail of the Bank - 44140 Nickerson Bank - 44251 Northeast Burgeo Bank - 44255 Blanc-Sablon Airport Cap Whittle Chevery Natashquan Airport Heath Point Miscou Island Grand Étang Ingonish Beach North Mountain St.Paul Island J.A. Douglas McCurdy Sydney Airport Charlottetown Airport East Point North Cape Argentia Bonavista Burgeo Cape Race Corner Brook Daniel's Harbour Englee Ferolle Point La Scie Port aux Basques Rocky Harbour Sagona Island St. Anthony Airport St. John's Int'l Airport St. Lawrence Stephenville Airport Twillingate Winterland Wreckhouse Cartwright Airport Mary's Harbour Grates Cove Pool's Island Marticot Island Long Pond Îles de la Madeleine Airport
Legend: buoyBuoy land stationLand Station